JBU1841 KJFK-KSAV
Flight info
| Callsign | JBU1841 |
|---|---|
| Flight time | 1h 48m |
| Altitude | 34000 |
| Route | DCT WAVEY DCT EMJAY Q167 ZJAAY Q97 SAWED DCT GUILD Q409 SESUE DCT SOOOP DCT |
| Aircraft | A320/M-SDE2E3FGHIRWXY/LB1 |
Departure
| Time | 2026-05-06 11:02 |
|---|---|
| Airport | John F. Kennedy International Airport (KJFK) |
Arrival
| Time | 2026-05-06 12:51 |
|---|---|
| Airport | Savannah Hilton Head International Airport (KSAV) |
| Time | Latitude | Longitude | Altitude | Speed | Heading |
|---|---|---|---|---|---|
| 2026-05-06 10:58 | 40.64472 | -73.77251 | 21 ft | 2 kts | 92° |
| 2026-05-06 10:59 | 40.64463 | -73.77216 | 21 ft | 7 kts | 126° |
| 2026-05-06 10:59 | 40.64442 | -73.77160 | 21 ft | 7 kts | 103° |
| 2026-05-06 10:59 | 40.64428 | -73.77076 | 21 ft | 11 kts | 101° |
| 2026-05-06 10:59 | 40.64468 | -73.76993 | 21 ft | 14 kts | 8° |
| 2026-05-06 11:00 | 40.64570 | -73.76948 | 21 ft | 16 kts | 30° |
| 2026-05-06 11:00 | 40.64681 | -73.76860 | 21 ft | 24 kts | 31° |
| 2026-05-06 11:00 | 40.64843 | -73.76721 | 22 ft | 27 kts | 31° |
| 2026-05-06 11:00 | 40.65007 | -73.76591 | 22 ft | 26 kts | 32° |
| 2026-05-06 11:01 | 40.65105 | -73.76478 | 21 ft | 12 kts | 89° |
| 2026-05-06 11:01 | 40.65071 | -73.76392 | 21 ft | 13 kts | 122° |
| 2026-05-06 11:01 | 40.65003 | -73.76370 | 21 ft | 11 kts | 210° |
| 2026-05-06 11:01 | 40.64861 | -73.76482 | 21 ft | 50 kts | 210° |
| 2026-05-06 11:02 | 40.64372 | -73.76864 | 22 ft | 111 kts | 210° |
| 2026-05-06 11:02 | 40.63562 | -73.77500 | 50 ft | 156 kts | 210° |
| 2026-05-06 11:02 | 40.62630 | -73.78262 | 578 ft | 158 kts | 211° |
| 2026-05-06 11:02 | 40.61734 | -73.78994 | 1349 ft | 150 kts | 208° |
| 2026-05-06 11:03 | 40.60756 | -73.79177 | 2057 ft | 154 kts | 172° |
| 2026-05-06 11:03 | 40.59776 | -73.78364 | 2390 ft | 179 kts | 150° |
| 2026-05-06 11:03 | 40.58789 | -73.77258 | 2706 ft | 194 kts | 150° |
| 2026-05-06 11:03 | 40.57706 | -73.76075 | 2958 ft | 215 kts | 150° |
| 2026-05-06 11:04 | 40.56487 | -73.74764 | 3304 ft | 234 kts | 149° |
| 2026-05-06 11:04 | 40.55191 | -73.73366 | 3705 ft | 252 kts | 148° |
| 2026-05-06 11:04 | 40.53813 | -73.71880 | 4308 ft | 261 kts | 148° |
| 2026-05-06 11:04 | 40.52416 | -73.70368 | 5053 ft | 265 kts | 148° |
| 2026-05-06 11:05 | 40.50983 | -73.68823 | 5821 ft | 269 kts | 147° |
| 2026-05-06 11:05 | 40.49530 | -73.67258 | 6588 ft | 272 kts | 147° |
| 2026-05-06 11:05 | 40.48083 | -73.65700 | 7330 ft | 275 kts | 147° |
| 2026-05-06 11:05 | 40.46591 | -73.64097 | 8119 ft | 278 kts | 147° |
| 2026-05-06 11:06 | 40.45110 | -73.62505 | 8890 ft | 280 kts | 148° |
| 2026-05-06 11:06 | 40.43592 | -73.60878 | 9630 ft | 282 kts | 148° |
| 2026-05-06 11:06 | 40.42081 | -73.59265 | 10303 ft | 286 kts | 148° |
| 2026-05-06 11:06 | 40.40516 | -73.57600 | 10689 ft | 300 kts | 148° |
| 2026-05-06 11:07 | 40.38831 | -73.55817 | 10991 ft | 317 kts | 147° |
| 2026-05-06 11:07 | 40.37086 | -73.53961 | 11281 ft | 333 kts | 147° |
| 2026-05-06 11:07 | 40.35242 | -73.51999 | 11546 ft | 348 kts | 147° |
| 2026-05-06 11:07 | 40.33333 | -73.49966 | 11813 ft | 363 kts | 146° |
| 2026-05-06 11:08 | 40.31348 | -73.47851 | 12059 ft | 376 kts | 146° |
| 2026-05-06 11:08 | 40.29267 | -73.45633 | 12335 ft | 388 kts | 146° |
| 2026-05-06 11:08 | 40.27167 | -73.43394 | 12799 ft | 394 kts | 146° |
| 2026-05-06 11:08 | 40.25050 | -73.41141 | 13309 ft | 397 kts | 146° |
| 2026-05-06 11:09 | 40.22858 | -73.38892 | 13839 ft | 398 kts | 149° |
| 2026-05-06 11:09 | 40.20624 | -73.36785 | 14325 ft | 401 kts | 149° |
| 2026-05-06 11:09 | 40.18351 | -73.34659 | 14762 ft | 405 kts | 150° |
| 2026-05-06 11:09 | 40.16018 | -73.32473 | 15213 ft | 409 kts | 150° |
| 2026-05-06 11:10 | 40.13601 | -73.30453 | 15635 ft | 406 kts | 160° |
| 2026-05-06 11:10 | 40.10955 | -73.29473 | 16049 ft | 398 kts | 178° |
| 2026-05-06 11:10 | 40.08158 | -73.29591 | 16473 ft | 392 kts | 195° |
| 2026-05-06 11:10 | 40.05562 | -73.30764 | 16892 ft | 389 kts | 211° |
| 2026-05-06 11:11 | 40.03359 | -73.32805 | 17279 ft | 389 kts | 222° |
| 2026-05-06 11:11 | 40.01263 | -73.35158 | 17681 ft | 392 kts | 222° |
| 2026-05-06 11:11 | 39.99128 | -73.37544 | 18082 ft | 395 kts | 223° |
| 2026-05-06 11:11 | 39.97047 | -73.39867 | 18469 ft | 398 kts | 223° |
| 2026-05-06 11:12 | 39.94926 | -73.42236 | 18836 ft | 401 kts | 223° |
| 2026-05-06 11:12 | 39.92798 | -73.44609 | 19190 ft | 404 kts | 223° |
| 2026-05-06 11:12 | 39.90673 | -73.46980 | 19532 ft | 407 kts | 223° |
| 2026-05-06 11:12 | 39.88490 | -73.49410 | 19895 ft | 410 kts | 223° |
| 2026-05-06 11:13 | 39.86253 | -73.51898 | 20256 ft | 412 kts | 224° |
| 2026-05-06 11:13 | 39.83936 | -73.54475 | 20617 ft | 415 kts | 224° |
| 2026-05-06 11:13 | 39.81758 | -73.56902 | 20945 ft | 417 kts | 224° |
| 2026-05-06 11:13 | 39.79568 | -73.59340 | 21254 ft | 420 kts | 224° |
| 2026-05-06 11:14 | 39.77313 | -73.61848 | 21553 ft | 422 kts | 224° |
| 2026-05-06 11:14 | 39.75008 | -73.64410 | 21860 ft | 425 kts | 224° |
| 2026-05-06 11:14 | 39.72712 | -73.66959 | 22168 ft | 427 kts | 224° |
| 2026-05-06 11:14 | 39.70399 | -73.69526 | 22461 ft | 430 kts | 224° |
| 2026-05-06 11:15 | 39.68106 | -73.72067 | 22747 ft | 432 kts | 224° |
| 2026-05-06 11:15 | 39.65745 | -73.74683 | 23026 ft | 435 kts | 224° |
| 2026-05-06 11:15 | 39.63294 | -73.77398 | 23307 ft | 438 kts | 224° |
| 2026-05-06 11:15 | 39.60941 | -73.79997 | 23593 ft | 440 kts | 225° |
| 2026-05-06 11:16 | 39.58602 | -73.82578 | 23884 ft | 441 kts | 224° |
| 2026-05-06 11:16 | 39.56247 | -73.85179 | 24165 ft | 443 kts | 224° |
| 2026-05-06 11:16 | 39.53898 | -73.87769 | 24448 ft | 444 kts | 224° |
| 2026-05-06 11:16 | 39.51550 | -73.90354 | 24692 ft | 445 kts | 225° |
| 2026-05-06 11:17 | 39.49181 | -73.92960 | 24957 ft | 446 kts | 225° |
| 2026-05-06 11:17 | 39.46763 | -73.95619 | 25354 ft | 444 kts | 225° |
| 2026-05-06 11:17 | 39.44331 | -73.98286 | 25772 ft | 441 kts | 225° |
| 2026-05-06 11:17 | 39.41998 | -74.00844 | 26108 ft | 440 kts | 225° |
| 2026-05-06 11:18 | 39.39656 | -74.03408 | 26453 ft | 439 kts | 225° |
| 2026-05-06 11:18 | 39.37298 | -74.05987 | 26782 ft | 438 kts | 225° |
| 2026-05-06 11:18 | 39.34928 | -74.08575 | 27108 ft | 438 kts | 225° |
| 2026-05-06 11:18 | 39.32564 | -74.11156 | 27451 ft | 437 kts | 225° |
| 2026-05-06 11:19 | 39.30221 | -74.13711 | 27815 ft | 435 kts | 225° |
| 2026-05-06 11:19 | 39.27859 | -74.16285 | 28183 ft | 433 kts | 225° |
| 2026-05-06 11:19 | 39.25533 | -74.18816 | 28504 ft | 432 kts | 226° |
| 2026-05-06 11:19 | 39.23172 | -74.21384 | 28824 ft | 431 kts | 226° |
| 2026-05-06 11:20 | 39.20870 | -74.23886 | 29179 ft | 430 kts | 226° |
| 2026-05-06 11:20 | 39.18589 | -74.26364 | 29496 ft | 428 kts | 226° |
| 2026-05-06 11:20 | 39.16317 | -74.28831 | 29788 ft | 428 kts | 226° |
| 2026-05-06 11:20 | 39.14002 | -74.31338 | 30074 ft | 427 kts | 226° |
| 2026-05-06 11:21 | 39.11734 | -74.33793 | 30331 ft | 427 kts | 226° |
| 2026-05-06 11:21 | 39.09447 | -74.36268 | 30565 ft | 428 kts | 227° |
| 2026-05-06 11:21 | 39.07190 | -74.38711 | 30815 ft | 427 kts | 227° |
| 2026-05-06 11:21 | 39.04900 | -74.41187 | 31083 ft | 427 kts | 227° |
| 2026-05-06 11:22 | 39.02620 | -74.43645 | 31334 ft | 427 kts | 227° |
| 2026-05-06 11:22 | 39.00335 | -74.46109 | 31599 ft | 426 kts | 227° |
| 2026-05-06 11:22 | 38.98083 | -74.48534 | 31910 ft | 424 kts | 227° |
| 2026-05-06 11:22 | 38.95818 | -74.50970 | 32141 ft | 424 kts | 228° |
| 2026-05-06 11:23 | 38.93597 | -74.53419 | 32317 ft | 423 kts | 230° |
| 2026-05-06 11:23 | 38.91423 | -74.55970 | 32491 ft | 424 kts | 230° |
| 2026-05-06 11:23 | 38.89207 | -74.58567 | 32652 ft | 425 kts | 230° |
| 2026-05-06 11:23 | 38.87025 | -74.61121 | 32864 ft | 424 kts | 230° |
| 2026-05-06 11:24 | 38.84841 | -74.63672 | 33037 ft | 425 kts | 230° |
| 2026-05-06 11:24 | 38.82633 | -74.66251 | 33219 ft | 425 kts | 230° |
| 2026-05-06 11:24 | 38.80442 | -74.68813 | 33344 ft | 427 kts | 230° |
| 2026-05-06 11:24 | 38.78209 | -74.71421 | 33516 ft | 428 kts | 230° |
| 2026-05-06 11:25 | 38.75998 | -74.73991 | 33689 ft | 429 kts | 230° |
| 2026-05-06 11:25 | 38.73702 | -74.76499 | 33855 ft | 432 kts | 227° |
| 2026-05-06 11:25 | 38.71372 | -74.78931 | 33971 ft | 434 kts | 227° |
| 2026-05-06 11:26 | 38.66675 | -74.83830 | 33972 ft | 435 kts | 227° |
| 2026-05-06 11:26 | 38.61987 | -74.88713 | 33977 ft | 435 kts | 227° |
| 2026-05-06 11:27 | 38.57274 | -74.93610 | 33986 ft | 434 kts | 227° |
| 2026-05-06 11:27 | 38.52587 | -74.98509 | 33989 ft | 434 kts | 229° |
| 2026-05-06 11:28 | 38.48044 | -75.03572 | 33988 ft | 431 kts | 229° |
| 2026-05-06 11:28 | 38.43269 | -75.08320 | 33985 ft | 437 kts | 225° |
| 2026-05-06 11:29 | 38.38362 | -75.12991 | 33990 ft | 439 kts | 225° |
| 2026-05-06 11:29 | 38.33457 | -75.17647 | 33997 ft | 438 kts | 226° |
| 2026-05-06 11:30 | 38.28568 | -75.22285 | 33994 ft | 437 kts | 226° |
| 2026-05-06 11:30 | 38.23679 | -75.26911 | 33999 ft | 438 kts | 226° |
| 2026-05-06 11:31 | 38.18778 | -75.31544 | 33999 ft | 438 kts | 225° |
| 2026-05-06 11:31 | 38.13856 | -75.36184 | 33996 ft | 439 kts | 226° |
| 2026-05-06 11:32 | 38.08938 | -75.40818 | 34005 ft | 440 kts | 226° |
| 2026-05-06 11:32 | 38.03989 | -75.45435 | 33998 ft | 441 kts | 224° |
| 2026-05-06 11:33 | 37.98910 | -75.49857 | 34002 ft | 443 kts | 223° |
| 2026-05-06 11:33 | 37.93827 | -75.54253 | 34008 ft | 443 kts | 224° |
| 2026-05-06 11:34 | 37.88707 | -75.58702 | 34002 ft | 444 kts | 224° |
| 2026-05-06 11:34 | 37.83567 | -75.63076 | 33998 ft | 447 kts | 221° |
| 2026-05-06 11:35 | 37.78158 | -75.67170 | 34003 ft | 449 kts | 220° |
| 2026-05-06 11:35 | 37.72767 | -75.71228 | 33993 ft | 447 kts | 220° |
| 2026-05-06 11:36 | 37.67389 | -75.75272 | 34000 ft | 448 kts | 220° |
| 2026-05-06 11:36 | 37.62015 | -75.79301 | 34003 ft | 450 kts | 220° |
| 2026-05-06 11:37 | 37.56672 | -75.83378 | 33997 ft | 447 kts | 222° |
| 2026-05-06 11:37 | 37.51680 | -75.87940 | 34001 ft | 437 kts | 228° |
| 2026-05-06 11:38 | 37.47156 | -75.92991 | 33997 ft | 433 kts | 231° |
| 2026-05-06 11:38 | 37.42745 | -75.98122 | 34000 ft | 432 kts | 231° |
| 2026-05-06 11:39 | 37.38308 | -76.03278 | 33994 ft | 432 kts | 231° |
| 2026-05-06 11:39 | 37.33898 | -76.08392 | 33999 ft | 432 kts | 232° |
| 2026-05-06 11:40 | 37.29459 | -76.13534 | 33999 ft | 434 kts | 232° |
| 2026-05-06 11:40 | 37.25006 | -76.18681 | 34003 ft | 432 kts | 232° |
| 2026-05-06 11:41 | 37.20576 | -76.23794 | 34011 ft | 434 kts | 232° |
| 2026-05-06 11:41 | 37.16103 | -76.28951 | 34015 ft | 431 kts | 231° |
| 2026-05-06 11:42 | 37.11698 | -76.34011 | 34009 ft | 430 kts | 232° |
| 2026-05-06 11:42 | 37.07301 | -76.39063 | 34012 ft | 433 kts | 232° |
| 2026-05-06 11:43 | 37.02866 | -76.44147 | 34014 ft | 431 kts | 232° |
| 2026-05-06 11:43 | 36.98424 | -76.49235 | 34016 ft | 430 kts | 232° |
| 2026-05-06 11:44 | 36.91751 | -76.56854 | 34015 ft | 432 kts | 232° |
| 2026-05-06 11:44 | 36.87318 | -76.61908 | 34017 ft | 430 kts | 232° |
| 2026-05-06 11:45 | 36.82852 | -76.66988 | 34023 ft | 432 kts | 231° |
| 2026-05-06 11:45 | 36.78402 | -76.72044 | 34019 ft | 433 kts | 232° |
| 2026-05-06 11:46 | 36.73930 | -76.77120 | 34025 ft | 433 kts | 231° |
| 2026-05-06 11:46 | 36.69450 | -76.82191 | 34025 ft | 434 kts | 231° |
| 2026-05-06 11:47 | 36.65008 | -76.87209 | 34024 ft | 431 kts | 231° |
| 2026-05-06 11:47 | 36.60543 | -76.92245 | 34022 ft | 435 kts | 232° |
| 2026-05-06 11:48 | 36.56076 | -76.97280 | 34022 ft | 434 kts | 232° |
| 2026-05-06 11:48 | 36.51574 | -77.02346 | 34014 ft | 432 kts | 231° |
| 2026-05-06 11:49 | 36.47110 | -77.07361 | 34012 ft | 435 kts | 232° |
| 2026-05-06 11:49 | 36.42598 | -77.12423 | 34016 ft | 437 kts | 232° |
| 2026-05-06 11:50 | 36.38083 | -77.17481 | 34024 ft | 437 kts | 232° |
| 2026-05-06 11:50 | 36.33606 | -77.22476 | 34027 ft | 435 kts | 232° |
| 2026-05-06 11:51 | 36.28904 | -77.27374 | 34030 ft | 441 kts | 229° |
| 2026-05-06 11:51 | 36.24061 | -77.32096 | 34027 ft | 442 kts | 229° |
| 2026-05-06 11:52 | 36.19224 | -77.36802 | 34028 ft | 440 kts | 229° |
| 2026-05-06 11:52 | 36.14401 | -77.41489 | 34030 ft | 443 kts | 229° |
| 2026-05-06 11:53 | 36.09546 | -77.46199 | 34027 ft | 443 kts | 229° |
| 2026-05-06 11:53 | 36.04702 | -77.50893 | 34034 ft | 441 kts | 229° |
| 2026-05-06 11:54 | 35.99865 | -77.55568 | 34032 ft | 442 kts | 229° |
| 2026-05-06 11:54 | 35.94989 | -77.60276 | 34033 ft | 444 kts | 229° |
| 2026-05-06 11:55 | 35.90097 | -77.64992 | 34038 ft | 441 kts | 229° |
| 2026-05-06 11:55 | 35.85209 | -77.69692 | 34031 ft | 444 kts | 229° |
| 2026-05-06 11:56 | 35.80342 | -77.74367 | 34035 ft | 445 kts | 229° |
| 2026-05-06 11:56 | 35.75484 | -77.79031 | 34032 ft | 443 kts | 229° |
| 2026-05-06 11:57 | 35.70587 | -77.83719 | 34025 ft | 444 kts | 229° |
| 2026-05-06 11:57 | 35.65703 | -77.88387 | 34033 ft | 443 kts | 229° |
| 2026-05-06 11:58 | 35.60807 | -77.93058 | 34036 ft | 442 kts | 229° |
| 2026-05-06 11:58 | 35.55918 | -77.97720 | 34037 ft | 442 kts | 229° |
| 2026-05-06 11:59 | 35.51037 | -78.02363 | 34045 ft | 441 kts | 229° |
| 2026-05-06 11:59 | 35.46174 | -78.06975 | 34049 ft | 443 kts | 229° |
| 2026-05-06 12:00 | 35.41267 | -78.11634 | 34049 ft | 443 kts | 229° |
| 2026-05-06 12:00 | 35.36395 | -78.16249 | 34045 ft | 446 kts | 230° |
| 2026-05-06 12:01 | 35.31447 | -78.20924 | 34048 ft | 444 kts | 230° |
| 2026-05-06 12:01 | 35.26515 | -78.25584 | 34049 ft | 447 kts | 230° |
| 2026-05-06 12:02 | 35.21595 | -78.30220 | 34045 ft | 445 kts | 229° |
| 2026-05-06 12:02 | 35.16694 | -78.34828 | 34045 ft | 443 kts | 229° |
| 2026-05-06 12:03 | 35.11784 | -78.39439 | 34043 ft | 443 kts | 229° |
| 2026-05-06 12:03 | 35.06899 | -78.44027 | 34047 ft | 445 kts | 229° |
| 2026-05-06 12:04 | 35.02008 | -78.48608 | 34058 ft | 442 kts | 229° |
| 2026-05-06 12:04 | 34.97104 | -78.53195 | 34054 ft | 444 kts | 229° |
| 2026-05-06 12:05 | 34.92190 | -78.57783 | 34054 ft | 444 kts | 230° |
| 2026-05-06 12:05 | 34.87278 | -78.62363 | 34046 ft | 444 kts | 230° |
| 2026-05-06 12:06 | 34.82346 | -78.66956 | 34047 ft | 444 kts | 229° |
| 2026-05-06 12:06 | 34.77385 | -78.71568 | 34040 ft | 445 kts | 229° |
| 2026-05-06 12:07 | 34.72499 | -78.76101 | 34045 ft | 444 kts | 229° |
| 2026-05-06 12:07 | 34.67585 | -78.80658 | 34035 ft | 444 kts | 229° |
| 2026-05-06 12:08 | 34.62675 | -78.85200 | 34037 ft | 443 kts | 229° |
| 2026-05-06 12:08 | 34.57746 | -78.89758 | 34034 ft | 444 kts | 229° |
| 2026-05-06 12:09 | 34.52838 | -78.94286 | 34038 ft | 442 kts | 229° |
| 2026-05-06 12:09 | 34.47962 | -78.98773 | 34032 ft | 442 kts | 229° |
| 2026-05-06 12:10 | 34.43034 | -79.03287 | 34037 ft | 443 kts | 229° |
| 2026-05-06 12:10 | 34.37975 | -79.07652 | 34042 ft | 447 kts | 227° |
| 2026-05-06 12:11 | 34.32851 | -79.12005 | 34039 ft | 447 kts | 227° |
| 2026-05-06 12:11 | 34.27788 | -79.16328 | 34050 ft | 447 kts | 228° |
| 2026-05-06 12:12 | 34.22924 | -79.20905 | 34054 ft | 438 kts | 231° |
| 2026-05-06 12:12 | 34.18201 | -79.25561 | 34048 ft | 438 kts | 231° |
| 2026-05-06 12:13 | 34.13459 | -79.30229 | 34051 ft | 440 kts | 231° |
| 2026-05-06 12:13 | 34.08725 | -79.34884 | 34049 ft | 438 kts | 231° |
| 2026-05-06 12:14 | 34.03988 | -79.39539 | 34050 ft | 441 kts | 231° |
| 2026-05-06 12:14 | 33.99218 | -79.44220 | 34049 ft | 440 kts | 231° |
| 2026-05-06 12:15 | 33.94474 | -79.48862 | 34049 ft | 440 kts | 231° |
| 2026-05-06 12:15 | 33.89702 | -79.53510 | 34046 ft | 440 kts | 230° |
| 2026-05-06 12:16 | 33.84537 | -79.57851 | 34048 ft | 450 kts | 224° |
| 2026-05-06 12:16 | 33.79062 | -79.61650 | 34047 ft | 453 kts | 221° |
| 2026-05-06 12:17 | 33.73577 | -79.65378 | 34055 ft | 451 kts | 220° |
| 2026-05-06 12:17 | 33.68043 | -79.69142 | 34050 ft | 454 kts | 220° |
| 2026-05-06 12:18 | 33.62481 | -79.72914 | 34054 ft | 455 kts | 220° |
| 2026-05-06 12:18 | 33.56984 | -79.76636 | 34055 ft | 454 kts | 220° |
| 2026-05-06 12:19 | 33.51417 | -79.80402 | 34052 ft | 454 kts | 220° |
| 2026-05-06 12:19 | 33.45938 | -79.84105 | 34049 ft | 453 kts | 220° |
| 2026-05-06 12:20 | 33.40433 | -79.87819 | 34052 ft | 453 kts | 220° |
| 2026-05-06 12:20 | 33.34959 | -79.91505 | 34060 ft | 452 kts | 220° |
| 2026-05-06 12:21 | 33.29490 | -79.95182 | 34059 ft | 453 kts | 220° |
| 2026-05-06 12:21 | 33.23975 | -79.98885 | 34056 ft | 452 kts | 220° |
| 2026-05-06 12:22 | 33.18463 | -80.02584 | 34065 ft | 452 kts | 220° |
| 2026-05-06 12:22 | 33.12981 | -80.06252 | 34063 ft | 451 kts | 220° |
| 2026-05-06 12:23 | 33.07535 | -80.09895 | 34060 ft | 452 kts | 220° |
| 2026-05-06 12:23 | 33.02046 | -80.13557 | 34061 ft | 451 kts | 220° |
| 2026-05-06 12:24 | 32.96555 | -80.17221 | 34066 ft | 452 kts | 220° |
| 2026-05-06 12:24 | 32.91083 | -80.20865 | 34068 ft | 453 kts | 219° |
| 2026-05-06 12:25 | 32.85583 | -80.24520 | 34063 ft | 452 kts | 220° |
| 2026-05-06 12:25 | 32.80049 | -80.28191 | 34060 ft | 451 kts | 220° |
| 2026-05-06 12:26 | 32.74575 | -80.31823 | 34064 ft | 453 kts | 220° |
| 2026-05-06 12:26 | 32.69059 | -80.35477 | 34063 ft | 453 kts | 220° |
| 2026-05-06 12:27 | 32.63543 | -80.39122 | 34064 ft | 454 kts | 220° |
| 2026-05-06 12:27 | 32.58007 | -80.42775 | 34062 ft | 454 kts | 220° |
| 2026-05-06 12:28 | 32.52493 | -80.46413 | 34065 ft | 455 kts | 220° |
| 2026-05-06 12:28 | 32.46959 | -80.50054 | 34064 ft | 454 kts | 220° |
| 2026-05-06 12:29 | 32.41421 | -80.53697 | 34068 ft | 455 kts | 220° |
| 2026-05-06 12:29 | 32.35876 | -80.57342 | 34069 ft | 456 kts | 220° |
| 2026-05-06 12:30 | 32.30342 | -80.61019 | 34066 ft | 454 kts | 220° |
| 2026-05-06 12:30 | 32.24819 | -80.64681 | 34071 ft | 456 kts | 220° |
| 2026-05-06 12:31 | 32.19254 | -80.68368 | 34073 ft | 456 kts | 220° |
| 2026-05-06 12:31 | 32.13715 | -80.72037 | 34066 ft | 457 kts | 220° |
| 2026-05-06 12:32 | 32.08176 | -80.75702 | 34072 ft | 459 kts | 220° |
| 2026-05-06 12:32 | 32.02602 | -80.79383 | 34075 ft | 458 kts | 220° |
| 2026-05-06 12:33 | 31.96968 | -80.83091 | 34078 ft | 460 kts | 220° |
| 2026-05-06 12:33 | 31.91376 | -80.86778 | 34074 ft | 457 kts | 220° |
| 2026-05-06 12:34 | 31.85767 | -80.90495 | 34071 ft | 459 kts | 220° |
| 2026-05-06 12:34 | 31.80252 | -80.94326 | 34058 ft | 447 kts | 229° |
| 2026-05-06 12:35 | 31.78079 | -80.96777 | 34043 ft | 421 kts | 240° |
| 2026-05-06 12:35 | 31.76433 | -80.99484 | 33416 ft | 396 kts | 250° |
| 2026-05-06 12:35 | 31.75211 | -81.02402 | 31998 ft | 390 kts | 257° |
| 2026-05-06 12:35 | 31.74348 | -81.05386 | 30184 ft | 395 kts | 262° |
| 2026-05-06 12:36 | 31.73810 | -81.08515 | 28323 ft | 398 kts | 268° |
| 2026-05-06 12:36 | 31.73618 | -81.11766 | 27128 ft | 384 kts | 274° |
| 2026-05-06 12:36 | 31.73741 | -81.14816 | 26482 ft | 361 kts | 280° |
| 2026-05-06 12:36 | 31.74134 | -81.17672 | 25943 ft | 339 kts | 285° |
| 2026-05-06 12:37 | 31.74759 | -81.20291 | 25442 ft | 320 kts | 291° |
| 2026-05-06 12:37 | 31.75568 | -81.22680 | 24732 ft | 311 kts | 296° |
| 2026-05-06 12:37 | 31.76559 | -81.24908 | 23870 ft | 307 kts | 301° |
| 2026-05-06 12:37 | 31.77746 | -81.27020 | 22961 ft | 306 kts | 306° |
| 2026-05-06 12:38 | 31.79066 | -81.28930 | 22113 ft | 305 kts | 311° |
| 2026-05-06 12:38 | 31.80566 | -81.30706 | 21297 ft | 302 kts | 316° |
| 2026-05-06 12:38 | 31.82168 | -81.32264 | 20519 ft | 300 kts | 321° |
| 2026-05-06 12:38 | 31.83901 | -81.33638 | 19755 ft | 297 kts | 325° |
| 2026-05-06 12:39 | 31.85630 | -81.34890 | 19028 ft | 293 kts | 325° |
| 2026-05-06 12:39 | 31.87374 | -81.36143 | 18260 ft | 290 kts | 325° |
| 2026-05-06 12:39 | 31.89080 | -81.37357 | 17538 ft | 287 kts | 325° |
| 2026-05-06 12:39 | 31.90792 | -81.38572 | 16796 ft | 285 kts | 326° |
| 2026-05-06 12:40 | 31.92472 | -81.39766 | 16031 ft | 284 kts | 326° |
| 2026-05-06 12:40 | 31.94158 | -81.40939 | 15261 ft | 284 kts | 330° |
| 2026-05-06 12:40 | 31.96045 | -81.41692 | 14450 ft | 289 kts | 345° |
| 2026-05-06 12:40 | 31.98029 | -81.42095 | 13711 ft | 289 kts | 347° |
| 2026-05-06 12:41 | 31.99988 | -81.42465 | 12977 ft | 288 kts | 347° |
| 2026-05-06 12:41 | 32.01976 | -81.42867 | 12219 ft | 287 kts | 346° |
| 2026-05-06 12:41 | 32.03923 | -81.43302 | 11506 ft | 284 kts | 342° |
| 2026-05-06 12:41 | 32.05677 | -81.44288 | 10778 ft | 276 kts | 317° |
| 2026-05-06 12:42 | 32.06807 | -81.46065 | 10056 ft | 272 kts | 290° |
| 2026-05-06 12:42 | 32.07200 | -81.48222 | 9346 ft | 271 kts | 276° |
| 2026-05-06 12:42 | 32.07333 | -81.50403 | 8647 ft | 269 kts | 274° |
| 2026-05-06 12:42 | 32.07425 | -81.52603 | 7939 ft | 268 kts | 273° |
| 2026-05-06 12:43 | 32.07515 | -81.54749 | 7245 ft | 266 kts | 273° |
| 2026-05-06 12:43 | 32.07608 | -81.56915 | 6533 ft | 264 kts | 273° |
| 2026-05-06 12:43 | 32.07874 | -81.59017 | 5817 ft | 264 kts | 291° |
| 2026-05-06 12:43 | 32.08995 | -81.60702 | 5260 ft | 262 kts | 321° |
| 2026-05-06 12:44 | 32.10628 | -81.61601 | 4994 ft | 252 kts | 347° |
| 2026-05-06 12:44 | 32.12336 | -81.61540 | 4979 ft | 241 kts | 14° |
| 2026-05-06 12:44 | 32.13717 | -81.60560 | 4962 ft | 233 kts | 49° |
| 2026-05-06 12:44 | 32.14443 | -81.58860 | 4978 ft | 234 kts | 83° |
| 2026-05-06 12:45 | 32.14334 | -81.56982 | 4995 ft | 232 kts | 108° |
| 2026-05-06 12:45 | 32.13851 | -81.55193 | 4958 ft | 228 kts | 112° |
| 2026-05-06 12:45 | 32.13126 | -81.51563 | 4402 ft | 230 kts | 96° |
| 2026-05-06 12:46 | 32.13091 | -81.49685 | 4187 ft | 228 kts | 91° |
| 2026-05-06 12:46 | 32.13117 | -81.47823 | 3959 ft | 227 kts | 91° |
| 2026-05-06 12:46 | 32.13134 | -81.45972 | 3741 ft | 225 kts | 92° |
| 2026-05-06 12:46 | 32.13130 | -81.44134 | 3530 ft | 224 kts | 93° |
| 2026-05-06 12:47 | 32.13112 | -81.42313 | 3316 ft | 222 kts | 93° |
| 2026-05-06 12:47 | 32.13087 | -81.40490 | 3045 ft | 224 kts | 94° |
| 2026-05-06 12:47 | 32.13061 | -81.38647 | 2752 ft | 226 kts | 94° |
| 2026-05-06 12:47 | 32.13038 | -81.36807 | 2452 ft | 220 kts | 94° |
| 2026-05-06 12:48 | 32.13019 | -81.35071 | 2232 ft | 202 kts | 94° |
| 2026-05-06 12:48 | 32.13002 | -81.33467 | 1984 ft | 190 kts | 95° |
| 2026-05-06 12:48 | 32.12985 | -81.31945 | 1714 ft | 182 kts | 95° |
| 2026-05-06 12:48 | 32.12969 | -81.30497 | 1469 ft | 170 kts | 95° |
| 2026-05-06 12:49 | 32.12955 | -81.29153 | 1229 ft | 158 kts | 95° |
| 2026-05-06 12:49 | 32.12935 | -81.27909 | 1009 ft | 146 kts | 96° |
| 2026-05-06 12:49 | 32.12905 | -81.26758 | 812 ft | 139 kts | 95° |
| 2026-05-06 12:49 | 32.12902 | -81.25618 | 669 ft | 137 kts | 95° |
| 2026-05-06 12:50 | 32.12889 | -81.24498 | 505 ft | 137 kts | 94° |
| 2026-05-06 12:50 | 32.12882 | -81.23377 | 325 ft | 136 kts | 93° |
| 2026-05-06 12:50 | 32.12876 | -81.22260 | 146 ft | 135 kts | 93° |
| 2026-05-06 12:50 | 32.12869 | -81.21192 | 57 ft | 122 kts | 92° |
| 2026-05-06 12:51 | 32.12862 | -81.20384 | 56 ft | 72 kts | 91° |
| 2026-05-06 12:51 | 32.12859 | -81.19999 | 56 ft | 22 kts | 89° |
| 2026-05-06 12:51 | 32.12865 | -81.19850 | 56 ft | 17 kts | 63° |
| 2026-05-06 12:51 | 32.12935 | -81.19815 | 56 ft | 10 kts | 359° |
| 2026-05-06 12:52 | 32.13014 | -81.19833 | 56 ft | 10 kts | 316° |
| 2026-05-06 12:52 | 32.13023 | -81.19922 | 56 ft | 11 kts | 272° |
| 2026-05-06 12:52 | 32.13024 | -81.20007 | 56 ft | 11 kts | 270° |
| 2026-05-06 12:52 | 32.13025 | -81.20141 | 56 ft | 21 kts | 270° |
| 2026-05-06 12:53 | 32.13040 | -81.20305 | 56 ft | 12 kts | 304° |
| 2026-05-06 12:53 | 32.13126 | -81.20330 | 56 ft | 14 kts | 0° |
| 2026-05-06 12:53 | 32.13230 | -81.20330 | 56 ft | 15 kts | 360° |
| 2026-05-06 12:53 | 32.13340 | -81.20331 | 56 ft | 16 kts | 359° |
| 2026-05-06 12:54 | 32.13458 | -81.20332 | 56 ft | 17 kts | 359° |
| 2026-05-06 12:54 | 32.13561 | -81.20358 | 56 ft | 13 kts | 296° |
| 2026-05-06 12:54 | 32.13571 | -81.20403 | 56 ft | 0 kts | 274° |
| 2026-05-06 12:54 | 32.13582 | -81.20416 | 56 ft | 5 kts | 336° |
| 2026-05-06 12:55 | 32.13641 | -81.20422 | 56 ft | 13 kts | 350° |
| 2026-05-06 12:55 | 32.13668 | -81.20514 | 56 ft | 12 kts | 259° |
| 2026-05-06 12:55 | 32.13621 | -81.20585 | 56 ft | 7 kts | 226° |
| 2026-05-06 12:55 | 32.13602 | -81.20609 | 56 ft | 2 kts | 227° |
| 2026-05-06 12:56 | 32.13601 | -81.20610 | 56 ft | 0 kts | 227° |